^^
Grace C. Lehan Memorial Weather Station Historical Data
Daily Summary for May 2, 2021 Units:  English    Metric   Both
Daily Weekly Monthly Yearly
  High: Low: Average:
Temperature: 75 °F 48.3 °F 61.9 °F
Dew Point: 59.7 °F 46.4 °F 53.8 °F
Humidity: 94% 56.5% 76%
Wind Speed: 2.6mph 0mph 0.3mph
Wind Gust: 11mph - -
Wind- - WSW
Pressure: 30.16 in 29.98 in -
Precipitation: 0.00 in    
 
 
Tabular Data for May 2, 2021
Time Temperature Dew Point Pressure Wind Wind Speed Wind Gust Humidity Rainfall Rate (Hourly) solar
00:09 50.5 °F 47.7 °F 30.16 in Calm     90% 0.00 in 0 W/m2
00:14 50.4 °F 47.6 °F 30.16 in Calm     90% 0.00 in 0 W/m2
00:19 50.4 °F 47.6 °F 30.15 in Calm     90% 0.00 in 0 W/m2
00:24 50.3 °F 47.5 °F 30.15 in Calm     90% 0.00 in 0 W/m2
00:29 50.3 °F 47.4 °F 30.15 in Calm     90% 0.00 in 0 W/m2
00:34 50.2 °F 47.7 °F 30.15 in Calm     91% 0.00 in 0 W/m2
00:39 50.1 °F 47.6 °F 30.15 in Calm     91% 0.00 in 0 W/m2
00:44 50.1 °F 47.6 °F 30.15 in Calm     91% 0.00 in 0 W/m2
00:49 50.1 °F 47.6 °F 30.15 in Calm     91% 0.00 in 0 W/m2
00:54 50.1 °F 47.6 °F 30.15 in Calm     91% 0.00 in 0 W/m2
00:59 50.1 °F 47.7 °F 30.15 in Calm     91.4% 0.00 in 0 W/m2
01:04 50.1 °F 47.6 °F 30.16 in Calm     91.2% 0.00 in 0 W/m2
01:09 50.1 °F 47.6 °F 30.16 in Calm     91% 0.00 in 0 W/m2
01:14 50 °F 47.5 °F 30.16 in Calm     91% 0.00 in 0 W/m2
01:19 49.9 °F 47.6 °F 30.16 in Calm     91.7% 0.00 in 0 W/m2
01:24 49.8 °F 47.3 °F 30.16 in Calm     91% 0.00 in 0 W/m2
01:29 49.7 °F 47.4 °F 30.15 in Calm     91.8% 0.00 in 0 W/m2
01:34 49.6 °F 47.4 °F 30.15 in Calm     92% 0.00 in 0 W/m2
01:39 49.5 °F 47.3 °F 30.15 in Calm     92% 0.00 in 0 W/m2
01:44 49.4 °F 47.2 °F 30.15 in Calm     92% 0.00 in 0 W/m2
01:49 49.4 °F 47.1 °F 30.15 in Calm     92% 0.00 in 0 W/m2
01:54 49.2 °F 47 °F 30.15 in Calm     92% 0.00 in 0 W/m2
01:59 49.1 °F 46.9 °F 30.15 in Calm     92% 0.00 in 0 W/m2
02:04 48.9 °F 46.7 °F 30.15 in Calm     92% 0.00 in 0 W/m2
02:09 48.8 °F 46.6 °F 30.15 in Calm     92% 0.00 in 0 W/m2
02:14 48.8 °F 46.6 °F 30.14 in Calm     92% 0.00 in 0 W/m2
02:19 48.7 °F 46.5 °F 30.14 in Calm     92% 0.00 in 0 W/m2
02:24 48.8 °F 46.7 °F 30.14 in Calm     92.7% 0.00 in 0 W/m2
02:29 48.8 °F 46.9 °F 30.14 in Calm     93% 0.00 in 0 W/m2
02:34 48.8 °F 46.9 °F 30.14 in Calm     93% 0.00 in 0 W/m2
02:39 48.8 °F 46.9 °F 30.14 in Calm     93% 0.00 in 0 W/m2
02:44 48.9 °F 46.9 °F 30.14 in WNW 0.1 mph 2 mph 93% 0.00 in 0 W/m2
02:49 48.9 °F 47 °F 30.14 in Calm   2 mph 93% 0.00 in 0 W/m2
02:54 48.9 °F 47 °F 30.14 in Calm   2 mph 93% 0.00 in 0 W/m2
02:59 48.9 °F 47 °F 30.14 in Calm   2 mph 93% 0.00 in 0 W/m2
03:04 48.9 °F 47 °F 30.14 in Calm   2 mph 93% 0.00 in 0 W/m2
03:09 49 °F 47.1 °F 30.14 in Calm     93% 0.00 in 0 W/m2
03:14 49 °F 47.1 °F 30.14 in Calm     93% 0.00 in 0 W/m2
03:19 49.1 °F 47.2 °F 30.14 in Calm     93% 0.00 in 0 W/m2
03:24 49.2 °F 47.3 °F 30.14 in Calm     93% 0.00 in 0 W/m2
03:29 49.2 °F 47.3 °F 30.14 in Calm     93% 0.00 in 0 W/m2
03:34 49.2 °F 47.3 °F 30.14 in Calm     93% 0.00 in 0 W/m2
03:39 49.2 °F 47.2 °F 30.14 in Calm     92.6% 0.00 in 0 W/m2
03:44 49.1 °F 46.9 °F 30.14 in Calm     92% 0.00 in 0 W/m2
03:49 49.1 °F 46.9 °F 30.14 in Calm     92% 0.00 in 0 W/m2
03:54 49 °F 46.8 °F 30.14 in West 0.3 mph 3 mph 92% 0.00 in 0 W/m2
03:59 49 °F 46.8 °F 30.14 in Calm   3 mph 92% 0.00 in 0 W/m2
04:09 48.8 °F 46.6 °F 30.13 in Calm     92% 0.00 in 0 W/m2
04:14 48.8 °F 46.6 °F 30.14 in Calm     92% 0.00 in 0 W/m2
04:19 48.8 °F 46.6 °F 30.14 in Calm     92% 0.00 in 0 W/m2
04:24 48.8 °F 46.6 °F 30.14 in Calm     92% 0.00 in 0 W/m2
04:29 48.8 °F 46.5 °F 30.14 in Calm     92% 0.00 in 0 W/m2
04:34 48.8 °F 46.6 °F 30.14 in Calm     92% 0.00 in 0 W/m2
04:39 48.8 °F 46.6 °F 30.14 in Calm     92% 0.00 in 0 W/m2
04:44 48.8 °F 46.6 °F 30.14 in Calm     92.1% 0.00 in 0 W/m2
04:49 48.9 °F 47 °F 30.13 in Calm     93% 0.00 in 0 W/m2
04:54 49 °F 47.1 °F 30.14 in Calm     93% 0.00 in 0 W/m2
04:59 49.1 °F 47.1 °F 30.14 in Calm     93% 0.00 in 0 W/m2
05:04 49.1 °F 47.2 °F 30.14 in Calm     93% 0.00 in 0 W/m2
05:09 49 °F 46.9 °F 30.14 in Calm     92.2% 0.00 in 0 W/m2
05:14 49 °F 46.8 °F 30.13 in Calm     92% 0.00 in 0 W/m2
05:19 49 °F 46.9 °F 30.14 in West 0.2 mph 3 mph 92.2% 0.00 in 0 W/m2
05:24 49 °F 47.1 °F 30.13 in Calm   3 mph 93% 0.00 in 0 W/m2
05:29 49.1 °F 47.1 °F 30.13 in Calm   3 mph 93% 0.00 in 0 W/m2
05:34 49.1 °F 47.1 °F 30.13 in Calm   3 mph 93% 0.00 in 0 W/m2
05:39 48.9 °F 46.7 °F 30.13 in Calm     92% 0.00 in 0 W/m2
05:44 48.8 °F 46.6 °F 30.13 in Calm     92% 0.00 in 0 W/m2
05:49 48.7 °F 46.6 °F 30.13 in Calm     92.4% 0.00 in 0 W/m2
05:54 48.6 °F 46.7 °F 30.13 in Calm     93% 0.00 in 0 W/m2
05:59 48.5 °F 46.6 °F 30.12 in Calm     93% 0.00 in 0 W/m2
06:04 48.5 °F 46.5 °F 30.12 in Calm     93% 0.00 in 0 W/m2
06:09 48.4 °F 46.5 °F 30.12 in Calm     93% 0.00 in 0 W/m2
06:14 48.4 °F 46.5 °F 30.12 in Calm     93% 0.00 in 0 W/m2
06:19 48.3 °F 46.4 °F 30.12 in Calm     93% 0.00 in 0 W/m2
06:24 48.3 °F 46.4 °F 30.12 in Calm     93% 0.00 in 0 W/m2
06:29 48.4 °F 46.5 °F 30.12 in Calm     93% 0.00 in 0 W/m2
06:34 48.5 °F 46.9 °F 30.12 in Calm     93.9% 0.00 in 0 W/m2
06:39 48.7 °F 47 °F 30.11 in Calm     94% 0.00 in 0 W/m2
06:44 48.7 °F 47 °F 30.12 in West 0.2 mph 4 mph 93.8% 0.00 in 0 W/m2
06:49 48.7 °F 46.8 °F 30.12 in Calm   4 mph 93% 0.00 in 0 W/m2
06:54 48.7 °F 46.9 °F 30.12 in Calm   4 mph 93.3% 0.00 in 5 W/m2
06:59 48.8 °F 47 °F 30.12 in West 0.8 mph 6 mph 93.6% 0.00 in 11 W/m2
07:04 48.9 °F 47.2 °F 30.12 in WSW 1.6 mph 7 mph 94% 0.00 in 12 W/m2
07:09 49.1 °F 47.5 °F 30.12 in WSW 1 mph 11 mph 94% 0.00 in 19 W/m2
07:14 49.3 °F 47.7 °F 30.12 in WSW 0.6 mph 11 mph 94% 0.00 in 25 W/m2
07:19 49.6 °F 48 °F 30.12 in WSW 1.3 mph 11 mph 94% 0.00 in 25 W/m2
07:24 49.9 °F 48.3 °F 30.12 in WSW 1.2 mph 11 mph 94% 0.00 in 23 W/m2
07:29 50.2 °F 48.5 °F 30.12 in WSW 1.5 mph 11 mph 93.6% 0.00 in 26 W/m2
07:34 50.6 °F 48.6 °F 30.13 in West 0.9 mph 11 mph 93% 0.00 in 26 W/m2
07:39 50.9 °F 48.7 °F 30.13 in WSW 0.5 mph 7 mph 92.2% 0.00 in 25 W/m2
07:44 51.2 °F 49 °F 30.13 in West 0.1 mph 7 mph 92% 0.00 in 25 W/m2
07:49 51.4 °F 48.9 °F 30.13 in Calm   7 mph 91% 0.00 in 33 W/m2
07:54 51.5 °F 48.9 °F 30.13 in Calm   7 mph 90.9% 0.00 in 35 W/m2
07:59 51.6 °F 48.7 °F 30.13 in Calm   7 mph 90% 0.00 in 47 W/m2
08:04 51.8 °F 49.3 °F 30.13 in West 2 mph 2 mph 91% 0.00 in 54 W/m2
08:09 51.9 °F 49.4 °F 30.13 in West 0.3 mph 2 mph 91% 0.00 in 54 W/m2
08:14 52.2 °F 49.4 °F 30.13 in West 0.1 mph 2 mph 90.1% 0.00 in 46 W/m2
08:19 52.5 °F 49.5 °F 30.13 in West 0.4 mph 5 mph 89.6% 0.00 in 37 W/m2
08:24 52.8 °F 49.7 °F 30.13 in Calm   5 mph 89% 0.00 in 39 W/m2
08:29 53.1 °F 49.7 °F 30.13 in Calm   5 mph 88% 0.00 in 40 W/m2
08:34 53.5 °F 49.8 °F 30.13 in Calm   5 mph 87.4% 0.00 in 40 W/m2
08:39 53.8 °F 50.1 °F 30.13 in West 0.2 mph 3 mph 87% 0.00 in 47 W/m2
08:44 54.2 °F 50.2 °F 30.12 in West 0.2 mph 4 mph 86.4% 0.00 in 54 W/m2
08:49 54.5 °F 50.4 °F 30.12 in Calm   4 mph 86% 0.00 in 58 W/m2
08:54 54.8 °F 50.7 °F 30.12 in Calm   4 mph 86% 0.00 in 69 W/m2
08:59 55.2 °F 51 °F 30.12 in Calm   4 mph 85.7% 0.00 in 98 W/m2
09:04 55.7 °F 51.3 °F 30.12 in Calm   4 mph 85% 0.00 in 172 W/m2
09:09 56.3 °F 51.5 °F 30.12 in West 0.1 mph 1 mph 84.1% 0.00 in 404 W/m2
09:14 57.1 °F 52 °F 30.12 in West 0.1 mph 3 mph 83.2% 0.00 in 417 W/m2
09:19 58.3 °F 53 °F 30.11 in West 0.3 mph 3 mph 82.5% 0.00 in 408 W/m2
09:24 59.6 °F 53.5 °F 30.11 in West 0.3 mph 3 mph 80.2% 0.00 in 350 W/m2
09:29 60.6 °F 53.7 °F 30.11 in WSW 0.4 mph 4 mph 77.9% 0.00 in 489 W/m2
09:34 61.7 °F 54.2 °F 30.11 in WSW 0.8 mph 5 mph 76.5% 0.00 in 497 W/m2
09:39 62.5 °F 54.3 °F 30.11 in WSW 0.1 mph 5 mph 74.7% 0.00 in 413 W/m2
09:44 63.2 °F 54.6 °F 30.11 in WSW 0.3 mph 5 mph 73.4% 0.00 in 483 W/m2
09:49 63.9 °F 55.2 °F 30.11 in WSW 0.3 mph 5 mph 73.3% 0.00 in 512 W/m2
09:54 64.8 °F 55.5 °F 30.11 in WSW 0.5 mph 5 mph 72% 0.00 in 513 W/m2
09:59 65.6 °F 55.3 °F 30.11 in WSW 0.2 mph 5 mph 69.4% 0.00 in 519 W/m2
10:04 66.4 °F 56.2 °F 30.11 in WSW 0.8 mph 6 mph 69.6% 0.00 in 529 W/m2
10:09 67.1 °F 56.2 °F 30.11 in WSW 0.1 mph 6 mph 68% 0.00 in 536 W/m2
10:14 67.7 °F 56.6 °F 30.11 in Calm   6 mph 67.7% 0.00 in 534 W/m2
10:19 68 °F 56.2 °F 30.11 in WSW 0.1 mph 6 mph 65.8% 0.00 in 534 W/m2
10:24 68.3 °F 56.3 °F 30.10 in WSW 1.1 mph 6 mph 65.6% 0.00 in 540 W/m2
10:29 68.5 °F 56.4 °F 30.10 in Calm   6 mph 65.4% 0.00 in 575 W/m2
10:34 68.7 °F 56.2 °F 30.10 in West 0.6 mph 9 mph 64.3% 0.00 in 606 W/m2
10:39 68.9 °F 56.5 °F 30.10 in WSW 0.2 mph 9 mph 64.7% 0.00 in 608 W/m2
10:44 69.4 °F 56.8 °F 30.10 in WSW 0.6 mph 9 mph 64.2% 0.00 in 633 W/m2
10:49 69.9 °F 56.8 °F 30.10 in SW 0.5 mph 9 mph 63.1% 0.00 in 628 W/m2
10:54 70.3 °F 57 °F 30.09 in WSW 0.8 mph 9 mph 62.7% 0.00 in 561 W/m2
10:59 70.6 °F 57.1 °F 30.09 in Calm   9 mph 62.3% 0.00 in 540 W/m2
11:04 70.8 °F 57.2 °F 30.09 in WSW 0.7 mph 9 mph 62% 0.00 in 613 W/m2
11:09 71.2 °F 57.3 °F 30.09 in Calm   4 mph 61.5% 0.00 in 605 W/m2
11:14 71.3 °F 56.8 °F 30.08 in Calm   4 mph 60.1% 0.00 in 596 W/m2
11:19 71.3 °F 57.1 °F 30.08 in Calm   4 mph 60.9% 0.00 in 686 W/m2
11:24 71.5 °F 57.3 °F 30.08 in WNW 0.2 mph 4 mph 61.1% 0.00 in 703 W/m2
11:29 71.7 °F 56.7 °F 30.08 in WNW 0.1 mph 4 mph 59.3% 0.00 in 679 W/m2
11:34 71.4 °F 56.4 °F 30.08 in West 0.2 mph 4 mph 59.1% 0.00 in 429 W/m2
11:39 71.5 °F 58.3 °F 30.08 in SW 0.4 mph 4 mph 63% 0.00 in 251 W/m2
11:44 71.8 °F 56.9 °F 30.08 in Calm   4 mph 59.4% 0.00 in 308 W/m2
11:49 71.8 °F 56.7 °F 30.08 in SW 0.2 mph 4 mph 59.1% 0.00 in 213 W/m2
11:54 71.8 °F 57.3 °F 30.08 in SW 0.3 mph 4 mph 60.3% 0.00 in 186 W/m2
11:59 71.8 °F 57.5 °F 30.07 in SW 0.7 mph 6 mph 60.7% 0.00 in 186 W/m2
12:00 71.9 °F 57.3 °F 30.07 in Calm   6 mph 60% 0.00 in 146 W/m2
12:09 71.9 °F 56.5 °F 30.06 in WSW 0.8 mph 4 mph 58.4% 0.00 in 192 W/m2
12:14 71.8 °F 56.7 °F 30.06 in Calm   4 mph 59% 0.00 in 577 W/m2
12:19 71.8 °F 56.9 °F 30.06 in West 0.3 mph 5 mph 59.4% 0.00 in 577 W/m2
12:24 71.8 °F 56.8 °F 30.06 in WSW 0.7 mph 5 mph 59.2% 0.00 in 436 W/m2
12:29 72 °F 57.1 °F 30.06 in WSW 0.8 mph 5 mph 59.4% 0.00 in 369 W/m2
12:34 72.2 °F 56.8 °F 30.05 in WSW 0.9 mph 10 mph 58.4% 0.00 in 130 W/m2
12:39 72.3 °F 56.6 °F 30.05 in SW 0.5 mph 10 mph 57.7% 0.00 in 113 W/m2
12:44 72.3 °F 56.8 °F 30.05 in SW 1 mph 10 mph 58.2% 0.00 in 172 W/m2
12:49 72.4 °F 56.5 °F 30.05 in WSW 0.8 mph 10 mph 57.4% 0.00 in 209 W/m2
12:54 72.4 °F 56.9 °F 30.05 in West 0.7 mph 10 mph 58% 0.00 in 137 W/m2
12:59 72.6 °F 57.1 °F 30.05 in Calm   10 mph 58.2% 0.00 in 183 W/m2
13:04 72.8 °F 56.8 °F 30.05 in West 0.4 mph 10 mph 57.2% 0.00 in 313 W/m2
13:09 72.8 °F 57.6 °F 30.05 in West 0.2 mph 5 mph 59% 0.00 in 153 W/m2
13:14 72.8 °F 57.4 °F 30.04 in West 0.7 mph 6 mph 58.6% 0.00 in 134 W/m2
13:19 72.7 °F 57 °F 30.04 in WSW 0.7 mph 6 mph 57.7% 0.00 in 155 W/m2
13:24 72.7 °F 57.3 °F 30.04 in West 0.6 mph 6 mph 58.5% 0.00 in 211 W/m2
13:29 72.7 °F 57.6 °F 30.04 in West 0.5 mph 6 mph 59.2% 0.00 in 192 W/m2
13:34 72.8 °F 58 °F 30.04 in Calm   6 mph 59.7% 0.00 in 220 W/m2
13:39 72.9 °F 57.9 °F 30.04 in West 0.2 mph 4 mph 59.4% 0.00 in 225 W/m2
13:44 73 °F 57.9 °F 30.03 in West 1.1 mph 4 mph 59.3% 0.00 in 197 W/m2
13:49 73.1 °F 58.2 °F 30.03 in Calm   4 mph 59.6% 0.00 in 181 W/m2
13:54 73.2 °F 58.7 °F 30.03 in West 0.6 mph 4 mph 60.5% 0.00 in 146 W/m2
13:59 73.2 °F 58.4 °F 30.03 in WSW 0.4 mph 4 mph 59.8% 0.00 in 327 W/m2
14:04 73.3 °F 58.7 °F 30.03 in WSW 0.8 mph 4 mph 60.2% 0.00 in 327 W/m2
14:09 73.5 °F 58.3 °F 30.03 in WSW 1.7 mph 10 mph 59.1% 0.00 in 320 W/m2
14:14 73.7 °F 58.9 °F 30.02 in SW 1.5 mph 10 mph 59.7% 0.00 in 83 W/m2
14:19 73.9 °F 58.5 °F 30.02 in SW 0.2 mph 10 mph 58.5% 0.00 in 60 W/m2
14:24 73.9 °F 58.8 °F 30.02 in West 0.4 mph 10 mph 59.1% 0.00 in 74 W/m2
14:29 74.1 °F 59 °F 30.02 in WNW 2 mph 10 mph 59.3% 0.00 in 74 W/m2
14:34 74.3 °F 58.5 °F 30.02 in West 1.9 mph 10 mph 57.8% 0.00 in 156 W/m2
14:39 74.4 °F 58.5 °F 30.02 in West 1.4 mph 7 mph 57.7% 0.00 in 181 W/m2
14:44 74.5 °F 58.5 °F 30.01 in WSW 2 mph 7 mph 57.5% 0.00 in 292 W/m2
14:49 74.5 °F 58.2 °F 30.01 in SW 0.4 mph 7 mph 56.8% 0.00 in 216 W/m2
14:54 74.6 °F 58.4 °F 30.01 in SW 1.1 mph 7 mph 57% 0.00 in 188 W/m2
14:59 74.6 °F 58.1 °F 30.01 in WNW 2.6 mph 10 mph 56.5% 0.00 in 220 W/m2
15:04 74.6 °F 58.3 °F 30.00 in WNW 1.1 mph 10 mph 56.8% 0.00 in 162 W/m2
15:09 74.7 °F 58.2 °F 30.00 in West 1.7 mph 5 mph 56.5% 0.00 in 56 W/m2
15:14 74.7 °F 58.7 °F 30.00 in WSW 0.9 mph 5 mph 57.5% 0.00 in 44 W/m2
15:19 74.8 °F 58.4 °F 30.00 in WSW 1.1 mph 5 mph 56.7% 0.00 in 246 W/m2
15:24 74.8 °F 58.8 °F 30.00 in WSW 1.6 mph 5 mph 57.5% 0.00 in 288 W/m2
15:29 74.9 °F 59.4 °F 30.00 in WSW 1 mph 5 mph 58.6% 0.00 in 171 W/m2
15:34 75 °F 59.4 °F 30.00 in West 2.2 mph 6 mph 58.3% 0.00 in 109 W/m2
15:39 75 °F 59.1 °F 30.00 in West 1.3 mph 5 mph 57.8% 0.00 in 109 W/m2
15:44 75 °F 58.8 °F 30.00 in SW 1.3 mph 5 mph 57% 0.00 in 139 W/m2
15:49 75 °F 58.7 °F 30.00 in SW 1.6 mph 5 mph 57% 0.00 in 42 W/m2
15:54 74.9 °F 58.4 °F 30.00 in SW 1.9 mph 5 mph 56.6% 0.00 in 40 W/m2
15:59 74.7 °F 58.5 °F 29.99 in SW 1.6 mph 5 mph 56.9% 0.00 in 39 W/m2
16:00 74.7 °F 59 °F 29.99 in Calm   5 mph 58% 0.00 in 39 W/m2
16:09 74.6 °F 58.9 °F 29.99 in WSW 1.9 mph 5 mph 58% 0.00 in 37 W/m2
16:14 74.6 °F 59.1 °F 29.99 in WSW 1.2 mph 6 mph 58.6% 0.00 in 37 W/m2
16:19 74.6 °F 59 °F 29.99 in SW 0.1 mph 6 mph 58.5% 0.00 in 35 W/m2
16:24 74.5 °F 59.4 °F 29.99 in SW 1.2 mph 6 mph 59.3% 0.00 in 35 W/m2
16:29 74.5 °F 59 °F 29.99 in WSW 1.3 mph 6 mph 58.5% 0.00 in 33 W/m2
16:34 74.4 °F 59.2 °F 29.98 in WSW 0.3 mph 6 mph 58.9% 0.00 in 33 W/m2
16:39 74.4 °F 59.5 °F 29.98 in WSW 2.1 mph 7 mph 59.7% 0.00 in 32 W/m2
16:44 74.5 °F 59.4 °F 29.98 in WNW 1.8 mph 7 mph 59.4% 0.00 in 32 W/m2
16:49 74.4 °F 59.6 °F 29.98 in WNW 0.4 mph 7 mph 59.9% 0.00 in 30 W/m2
16:54 74.4 °F 59.7 °F 29.99 in WNW 0.3 mph 7 mph 60.2% 0.00 in 30 W/m2
16:59 74.4 °F 59.5 °F 29.99 in West 1.2 mph 7 mph 59.8% 0.00 in 30 W/m2
17:04 74.3 °F 59.1 °F 29.99 in West 0.7 mph 7 mph 59% 0.00 in 28 W/m2
17:09 74.2 °F 59 °F 29.99 in WSW 0.9 mph 4 mph 59.1% 0.00 in 26 W/m2
17:14 74.1 °F 59.5 °F 29.99 in WSW 0.9 mph 5 mph 60.3% 0.00 in 26 W/m2
17:19 74 °F 59.6 °F 29.99 in WSW 0.9 mph 5 mph 60.7% 0.00 in 25 W/m2
17:24 73.8 °F 59.5 °F 29.99 in WSW 0.9 mph 5 mph 60.8% 0.00 in 25 W/m2
17:29 73.6 °F 59.1 °F 29.99 in WSW 0.5 mph 5 mph 60.5% 0.00 in 23 W/m2
17:34 73.4 °F 59.2 °F 29.99 in WSW 0.1 mph 5 mph 61% 0.00 in 21 W/m2
17:39 73.2 °F 59 °F 29.99 in WSW 0.6 mph 3 mph 61% 0.00 in 19 W/m2
17:44 73 °F 58.9 °F 29.99 in WSW 0.1 mph 3 mph 61.3% 0.00 in 18 W/m2
17:49 72.7 °F 59 °F 29.99 in Calm   3 mph 62% 0.00 in 16 W/m2
17:54 72.5 °F 58.9 °F 29.98 in WSW 0.2 mph 3 mph 62.4% 0.00 in 14 W/m2
17:59 72.3 °F 59 °F 29.98 in WSW 0.2 mph 3 mph 63% 0.00 in 12 W/m2
18:04 72 °F 58.8 °F 29.98 in Calm   3 mph 63.1% 0.00 in 12 W/m2
18:09 71.8 °F 59 °F 29.98 in Calm     64% 0.00 in 11 W/m2
18:14 71.6 °F 58.7 °F 29.99 in Calm   1 mph 64% 0.00 in 7 W/m2
18:19 71.3 °F 58.9 °F 29.99 in Calm   1 mph 65% 0.00 in 5 W/m2
18:24 71 °F 58.9 °F 29.99 in Calm   1 mph 65.6% 0.00 in 0 W/m2
18:29 70.7 °F 58.8 °F 29.99 in Calm   1 mph 66% 0.00 in 0 W/m2
18:34 70.4 °F 58.6 °F 29.99 in Calm   1 mph 66.2% 0.00 in 0 W/m2
18:39 70.1 °F 58.7 °F 29.99 in Calm     67% 0.00 in 0 W/m2
18:44 69.8 °F 58.4 °F 29.99 in Calm     67% 0.00 in 0 W/m2
18:49 69.5 °F 58.1 °F 29.99 in Calm     67.1% 0.00 in 0 W/m2
18:54 69.2 °F 58.2 °F 29.99 in Calm     68% 0.00 in 0 W/m2
18:59 69 °F 58 °F 29.99 in Calm     68% 0.00 in 0 W/m2
19:04 68.7 °F 57.7 °F 29.99 in Calm     68% 0.00 in 0 W/m2
19:09 68.5 °F 57.9 °F 30.00 in Calm     68.9% 0.00 in 0 W/m2
19:14 68.3 °F 57.7 °F 30.00 in Calm     69% 0.00 in 0 W/m2
19:19 68 °F 57.6 °F 30.00 in Calm     69.3% 0.00 in 0 W/m2
19:24 67.8 °F 57.7 °F 30.00 in Calm     70% 0.00 in 0 W/m2
19:29 67.6 °F 57.8 °F 30.00 in Calm     70.8% 0.00 in 0 W/m2
19:34 67.3 °F 57.8 °F 30.00 in Calm     71.6% 0.00 in 0 W/m2
19:39 67.1 °F 57.8 °F 30.00 in Calm     72.2% 0.00 in 0 W/m2
19:44 66.8 °F 57.8 °F 30.00 in Calm     73% 0.00 in 0 W/m2
19:49 66.5 °F 57.6 °F 30.00 in Calm     73% 0.00 in 0 W/m2
19:54 66.2 °F 57.7 °F 30.00 in Calm     74% 0.00 in 0 W/m2
19:59 66 °F 57.5 °F 30.00 in Calm     74% 0.00 in 0 W/m2
20:00 65.9 °F 57.4 °F 30.00 in Calm     74% 0.00 in 0 W/m2
20:09 65.6 °F 57.2 °F 30.00 in Calm     74.2% 0.00 in 0 W/m2
20:14 65.5 °F 57.4 °F 30.00 in Calm     75% 0.00 in 0 W/m2
20:19 65.3 °F 57.2 °F 30.00 in Calm     75% 0.00 in 0 W/m2
20:24 65.1 °F 57.3 °F 30.00 in Calm     75.7% 0.00 in 0 W/m2
20:29 65 °F 57.2 °F 30.00 in Calm     76% 0.00 in 0 W/m2
20:34 64.9 °F 57.3 °F 30.00 in Calm     76.5% 0.00 in 0 W/m2
20:39 64.8 °F 57.4 °F 29.99 in Calm   1 mph 77% 0.00 in 0 W/m2
20:44 64.7 °F 57.3 °F 29.99 in Calm   1 mph 77% 0.00 in 0 W/m2
20:49 64.6 °F 57.2 °F 29.99 in Calm   1 mph 77% 0.00 in 0 W/m2
20:54 64.4 °F 57.1 °F 29.99 in Calm   1 mph 77% 0.00 in 0 W/m2
20:59 64.3 °F 57.2 °F 29.99 in WSW 0.2 mph 2 mph 77.5% 0.00 in 0 W/m2
21:04 64.3 °F 57.3 °F 29.98 in Calm   2 mph 78% 0.00 in 0 W/m2
21:09 64.2 °F 57.2 °F 29.99 in Calm   1 mph 78% 0.00 in 0 W/m2
21:14 64.1 °F 57.7 °F 29.99 in Calm   1 mph 79.8% 0.00 in 0 W/m2
21:19 64.1 °F 58.3 °F 29.99 in Calm   1 mph 81.4% 0.00 in 0 W/m2
21:24 64.1 °F 58.5 °F 29.99 in Calm   1 mph 82% 0.00 in 0 W/m2
21:29 64 °F 58.1 °F 29.99 in Calm   1 mph 81.3% 0.00 in 0 W/m2
21:34 63.8 °F 57.9 °F 29.99 in WSW 0.1 mph 1 mph 81% 0.00 in 0 W/m2
21:39 63.8 °F 57.9 °F 29.98 in WSW 0.2 mph 3 mph 81% 0.00 in 0 W/m2
21:44 63.8 °F 58 °F 29.98 in Calm   3 mph 81.3% 0.00 in 0 W/m2
21:49 63.7 °F 57.7 °F 29.98 in Calm   3 mph 80.8% 0.00 in 0 W/m2
21:54 63.7 °F 57.4 °F 29.98 in WSW 0.1 mph 3 mph 80% 0.00 in 0 W/m2
21:59 63.7 °F 57.2 °F 29.98 in WSW 0.9 mph 6 mph 79.3% 0.00 in 0 W/m2
22:04 63.7 °F 57.1 °F 29.98 in WSW 0.3 mph 6 mph 79% 0.00 in 0 W/m2
22:09 63.7 °F 57.1 °F 29.98 in WSW 0.5 mph 7 mph 79% 0.00 in 0 W/m2
22:14 63.7 °F 57.1 °F 29.98 in WSW 0.1 mph 7 mph 79% 0.00 in 0 W/m2
22:19 63.7 °F 57.1 °F 29.99 in Calm   7 mph 79% 0.00 in 0 W/m2
22:24 63.7 °F 57 °F 29.99 in Calm   7 mph 78.8% 0.00 in 0 W/m2
22:29 63.7 °F 56.7 °F 29.99 in Calm   7 mph 78% 0.00 in 0 W/m2
22:34 63.6 °F 56.6 °F 29.99 in Calm   7 mph 78% 0.00 in 0 W/m2
22:39 63.6 °F 56.6 °F 29.99 in WSW 0.1 mph 2 mph 78% 0.00 in 0 W/m2
22:44 63.5 °F 56.8 °F 29.99 in Calm   2 mph 78.8% 0.00 in 0 W/m2
22:49 63.3 °F 56.7 °F 29.99 in WSW 0.6 mph 3 mph 79% 0.00 in 0 W/m2
22:54 63.1 °F 56.6 °F 29.99 in WSW 0.9 mph 4 mph 79.3% 0.00 in 0 W/m2
22:59 62.9 °F 56.6 °F 29.99 in WSW 0.4 mph 4 mph 80% 0.00 in 0 W/m2
23:04 62.6 °F 56.4 °F 29.99 in WSW 0.2 mph 4 mph 80% 0.00 in 0 W/m2
23:09 62.5 °F 56.3 °F 29.99 in WSW 0.1 mph 3 mph 80% 0.00 in 0 W/m2
23:14 62.4 °F 56.5 °F 29.99 in Calm   3 mph 81% 0.00 in 0 W/m2
23:19 62.4 °F 56.5 °F 29.99 in Calm   4 mph 81% 0.00 in 0 W/m2
23:24 62.4 °F 56.5 °F 29.99 in Calm   4 mph 81% 0.00 in 0 W/m2
23:29 62.4 °F 56.5 °F 29.99 in Calm   4 mph 81% 0.00 in 0 W/m2
23:34 62.4 °F 56.5 °F 29.99 in Calm   4 mph 81% 0.00 in 0 W/m2
23:39 62.4 °F 56.5 °F 29.99 in Calm     81% 0.00 in 0 W/m2
23:44 62.4 °F 56.5 °F 29.99 in Calm     81% 0.00 in 0 W/m2
23:49 62.4 °F 56.5 °F 29.99 in Calm     81% 0.00 in 0 W/m2
23:54 62.4 °F 56.5 °F 29.99 in Calm     81% 0.00 in 0 W/m2
23:59 62.3 °F 56.4 °F 29.99 in Calm     81% 0.00 in 0 W/m2
Hartford County Weather
Compliments of Weather Underground - 2 mb